createdAt,value
2022-09-09T00:00:54.533Z,13.25
2022-09-09T00:01:50.337Z,13.20
2022-09-09T00:02:45.524Z,13.13
2022-09-09T00:03:40.704Z,13.05
2022-09-09T00:04:36.440Z,13.03
2022-09-09T00:05:31.683Z,13.00
2022-09-09T00:06:27.602Z,12.97
2022-09-09T00:07:22.725Z,12.98
2022-09-09T00:08:17.834Z,13.00
2022-09-09T00:09:13.632Z,13.02
2022-09-09T00:10:08.875Z,13.04
2022-09-09T00:11:04.266Z,13.06
2022-09-09T00:12:00.435Z,13.06
2022-09-09T00:12:55.573Z,13.06
2022-09-09T00:13:51.449Z,13.08
2022-09-09T00:14:46.698Z,13.09
2022-09-09T00:15:42.028Z,13.07
2022-09-09T00:16:37.627Z,13.06
2022-09-09T00:17:32.768Z,13.03
2022-09-09T00:18:28.656Z,13.00
2022-09-09T00:19:23.740Z,12.97
2022-09-09T00:20:19.095Z,12.97
2022-09-09T00:21:14.792Z,12.98
2022-09-09T00:22:10.050Z,12.99
2022-09-09T00:23:05.126Z,13.00
2022-09-09T00:24:01.564Z,13.04
2022-09-09T00:24:56.828Z,13.06
2022-09-09T00:25:52.698Z,13.06
2022-09-09T00:26:47.754Z,13.05
2022-09-09T00:27:42.884Z,13.02
2022-09-09T00:28:38.654Z,13.00
2022-09-09T00:29:33.917Z,12.96
2022-09-09T00:30:29.683Z,12.93
2022-09-09T00:31:24.922Z,12.88
2022-09-09T00:32:20.186Z,12.80
2022-09-09T00:33:15.963Z,12.76
2022-09-09T00:34:11.303Z,12.76
2022-09-09T00:35:06.510Z,12.74
2022-09-09T00:36:02.846Z,12.72
2022-09-09T00:36:58.091Z,12.70
2022-09-09T00:37:53.902Z,12.68
2022-09-09T00:38:48.984Z,12.65
2022-09-09T00:39:44.231Z,12.63
2022-09-09T00:40:39.311Z,12.60
2022-09-09T00:41:34.423Z,12.57
2022-09-09T00:42:29.635Z,12.59
2022-09-09T00:43:24.998Z,12.74
2022-09-09T00:44:20.091Z,12.87
2022-09-09T00:45:16.679Z,12.90
2022-09-09T00:46:12.000Z,12.86
2022-09-09T00:47:07.685Z,12.79
2022-09-09T00:48:02.894Z,12.74
2022-09-09T00:48:58.014Z,12.70
2022-09-09T00:49:53.237Z,12.65
2022-09-09T00:50:48.478Z,12.58
2022-09-09T00:51:43.551Z,12.55
2022-09-09T00:52:39.326Z,12.56
2022-09-09T00:53:34.435Z,12.57
2022-09-09T00:54:29.673Z,12.54
2022-09-09T00:55:24.856Z,12.53
2022-09-09T00:56:19.974Z,12.49
2022-09-09T00:57:15.081Z,12.48
2022-09-09T00:58:10.045Z,12.43
2022-09-09T00:59:05.134Z,12.39
2022-09-09T01:00:00.276Z,12.35
2022-09-09T01:00:55.255Z,12.33
2022-09-09T01:01:50.388Z,12.28
2022-09-09T01:02:45.567Z,12.26
2022-09-09T01:03:40.604Z,12.24
2022-09-09T01:04:35.663Z,12.24
2022-09-09T01:05:30.783Z,12.25
2022-09-09T01:06:25.843Z,12.28
2022-09-09T01:07:20.925Z,12.32
2022-09-09T01:08:15.890Z,12.38
2022-09-09T01:09:10.870Z,12.43
2022-09-09T01:10:05.929Z,12.48
2022-09-09T01:11:01.022Z,12.50
2022-09-09T01:11:59.949Z,12.53
2022-09-09T01:12:55.033Z,12.54
2022-09-09T01:13:49.909Z,12.55
2022-09-09T01:14:44.998Z,12.55
2022-09-09T01:15:40.003Z,12.54
2022-09-09T01:16:35.141Z,12.52
2022-09-09T01:17:30.119Z,12.50
2022-09-09T01:18:25.108Z,12.49
2022-09-09T01:19:20.211Z,12.47
2022-09-09T01:20:15.295Z,12.43
2022-09-09T01:21:10.427Z,12.41
2022-09-09T01:22:05.426Z,12.41
2022-09-09T01:23:00.526Z,12.40
2022-09-09T01:23:55.726Z,12.42
2022-09-09T01:24:50.853Z,12.43
2022-09-09T01:25:46.629Z,12.41
2022-09-09T01:26:41.757Z,12.39
2022-09-09T01:27:37.525Z,12.37
2022-09-09T01:28:32.773Z,12.39
2022-09-09T01:29:27.923Z,12.43
2022-09-09T01:30:23.731Z,12.44
2022-09-09T01:31:18.985Z,12.45
2022-09-09T01:32:14.036Z,12.45
2022-09-09T01:33:10.502Z,12.50
2022-09-09T01:34:05.732Z,12.54
2022-09-09T01:35:01.513Z,12.54
2022-09-09T01:35:56.620Z,12.49
2022-09-09T01:36:51.716Z,12.50
2022-09-09T01:37:47.535Z,12.52
2022-09-09T01:38:42.753Z,12.55
2022-09-09T01:39:38.722Z,12.57
2022-09-09T01:40:33.685Z,12.52
2022-09-09T01:41:28.798Z,12.46
2022-09-09T01:42:24.627Z,12.41
2022-09-09T01:43:19.845Z,12.37
2022-09-09T01:44:15.186Z,12.31
2022-09-09T01:45:11.350Z,12.25
2022-09-09T01:46:06.537Z,12.22
2022-09-09T01:47:02.344Z,12.22
2022-09-09T01:47:57.535Z,12.24
2022-09-09T01:48:52.771Z,12.22
2022-09-09T01:49:48.463Z,12.13
2022-09-09T01:50:43.723Z,12.11
2022-09-09T01:51:39.528Z,12.08
2022-09-09T01:52:34.724Z,12.04
2022-09-09T01:53:30.088Z,12.00
2022-09-09T01:54:25.765Z,12.01
2022-09-09T01:55:20.983Z,12.04
2022-09-09T01:56:16.097Z,12.05
2022-09-09T01:57:12.416Z,12.04
2022-09-09T01:58:07.670Z,12.06
2022-09-09T01:59:03.449Z,12.07
2022-09-09T01:59:58.635Z,12.08
2022-09-09T02:00:53.796Z,12.07
2022-09-09T02:01:49.563Z,12.09
2022-09-09T02:02:44.816Z,12.11
2022-09-09T02:03:40.443Z,12.12
2022-09-09T02:04:35.649Z,12.09
2022-09-09T02:05:30.900Z,12.08
2022-09-09T02:06:26.693Z,12.07
2022-09-09T02:07:21.811Z,12.07
2022-09-09T02:08:16.992Z,12.11
2022-09-09T02:09:13.318Z,12.14
2022-09-09T02:10:08.544Z,12.16
2022-09-09T02:11:04.351Z,12.15
2022-09-09T02:11:59.459Z,12.15
2022-09-09T02:12:54.552Z,12.17
2022-09-09T02:13:49.779Z,12.18
2022-09-09T02:14:44.980Z,12.17
2022-09-09T02:15:41.605Z,12.16
2022-09-09T02:16:36.795Z,12.14
2022-09-09T02:17:32.586Z,12.14
2022-09-09T02:18:27.789Z,12.15
2022-09-09T02:19:22.906Z,12.11
2022-09-09T02:20:18.690Z,12.10
2022-09-09T02:21:13.971Z,12.10
2022-09-09T02:22:09.728Z,12.09
2022-09-09T02:23:04.990Z,12.06
2022-09-09T02:24:00.125Z,12.04
2022-09-09T02:24:55.904Z,12.05
2022-09-09T02:25:51.174Z,12.07
2022-09-09T02:26:46.242Z,12.07
2022-09-09T02:27:42.562Z,12.05
2022-09-09T02:28:37.928Z,12.06
2022-09-09T02:29:33.626Z,12.10
2022-09-09T02:30:28.870Z,12.11
2022-09-09T02:31:24.170Z,12.10
2022-09-09T02:32:19.370Z,12.06
2022-09-09T02:33:14.500Z,12.01
2022-09-09T02:34:09.870Z,11.98
2022-09-09T02:35:05.055Z,11.91
2022-09-09T02:36:00.202Z,11.85
2022-09-09T02:36:56.114Z,11.84
2022-09-09T02:37:51.441Z,11.85
2022-09-09T02:38:46.562Z,11.90
2022-09-09T02:39:41.848Z,11.96
2022-09-09T02:40:36.801Z,12.03
2022-09-09T02:41:31.865Z,12.08
2022-09-09T02:42:26.960Z,12.06
2022-09-09T02:43:22.054Z,12.03
2022-09-09T02:44:17.167Z,12.00
2022-09-09T02:45:12.234Z,12.03
2022-09-09T02:46:07.310Z,12.06
2022-09-09T02:47:02.276Z,12.07
2022-09-09T02:47:57.395Z,12.09
2022-09-09T02:48:52.587Z,12.11
2022-09-09T02:49:47.714Z,12.11
2022-09-09T02:50:42.806Z,12.13
2022-09-09T02:51:37.920Z,12.14
2022-09-09T02:52:33.437Z,12.11
2022-09-09T02:53:28.550Z,12.09
2022-09-09T02:54:23.766Z,12.05
2022-09-09T02:55:18.965Z,12.03
2022-09-09T02:56:14.081Z,12.00
2022-09-09T02:57:09.133Z,12.02
2022-09-09T02:58:04.229Z,12.04
2022-09-09T02:58:59.463Z,12.08
2022-09-09T02:59:55.429Z,12.13
2022-09-09T03:00:50.528Z,12.15
2022-09-09T03:01:45.672Z,12.13
2022-09-09T03:02:41.574Z,12.08
2022-09-09T03:03:36.716Z,12.00
2022-09-09T03:04:32.122Z,11.96
2022-09-09T03:05:28.270Z,11.88
2022-09-09T03:06:23.446Z,11.81
2022-09-09T03:07:19.314Z,11.77
2022-09-09T03:08:14.574Z,11.75
2022-09-09T03:09:09.885Z,11.78
2022-09-09T03:10:05.604Z,11.81
2022-09-09T03:11:00.887Z,11.78
2022-09-09T03:11:56.752Z,11.76
2022-09-09T03:12:51.878Z,11.80
2022-09-09T03:13:47.286Z,11.85
2022-09-09T03:14:43.041Z,11.89
2022-09-09T03:15:38.327Z,12.02
2022-09-09T03:16:33.518Z,12.18
2022-09-09T03:17:29.899Z,12.24
2022-09-09T03:18:25.244Z,12.26
2022-09-09T03:19:21.121Z,12.25
2022-09-09T03:20:16.258Z,12.23
2022-09-09T03:21:11.480Z,12.18
2022-09-09T03:22:07.287Z,12.15
2022-09-09T03:23:02.459Z,12.06
2022-09-09T03:23:58.326Z,11.99
2022-09-09T03:24:53.463Z,11.94
2022-09-09T03:25:48.811Z,11.90
2022-09-09T03:26:44.637Z,11.82
2022-09-09T03:27:39.824Z,11.84
2022-09-09T03:28:35.148Z,11.88
2022-09-09T03:29:31.313Z,11.96
2022-09-09T03:30:26.491Z,12.04
2022-09-09T03:31:22.383Z,12.09
2022-09-09T03:32:17.528Z,12.10
2022-09-09T03:33:12.691Z,12.10
2022-09-09T03:34:08.560Z,12.15
2022-09-09T03:35:03.882Z,12.22
2022-09-09T03:35:59.726Z,12.33
2022-09-09T03:36:54.755Z,12.41
2022-09-09T03:37:50.204Z,12.44
2022-09-09T03:38:45.938Z,12.45
2022-09-09T03:39:41.323Z,12.49
2022-09-09T03:40:36.643Z,12.51
2022-09-09T03:41:33.045Z,12.48
2022-09-09T03:42:28.197Z,12.43
2022-09-09T03:43:24.102Z,12.41
2022-09-09T03:44:19.211Z,12.43
2022-09-09T03:45:14.666Z,12.45
2022-09-09T03:46:10.871Z,12.48
2022-09-09T03:47:05.865Z,12.50
2022-09-09T03:48:01.096Z,12.55
2022-09-09T03:48:56.764Z,12.67
2022-09-09T03:49:51.990Z,12.73
2022-09-09T03:50:47.241Z,12.75
2022-09-09T03:51:43.558Z,12.72
2022-09-09T03:52:38.830Z,12.72
2022-09-09T03:53:34.604Z,12.80
2022-09-09T03:54:29.802Z,12.90
2022-09-09T03:55:24.932Z,12.95
2022-09-09T03:56:20.721Z,12.95
2022-09-09T03:57:15.857Z,12.96
2022-09-09T03:58:11.633Z,12.93
2022-09-09T03:59:06.843Z,12.88
2022-09-09T04:00:02.118Z,12.83
2022-09-09T04:00:57.434Z,12.79
2022-09-09T04:01:52.512Z,12.75
2022-09-09T04:02:47.506Z,12.76
2022-09-09T04:03:42.575Z,12.73
2022-09-09T04:04:37.559Z,12.74
2022-09-09T04:05:36.980Z,12.70
2022-09-09T04:06:32.199Z,12.70
2022-09-09T04:07:27.458Z,12.65
2022-09-09T04:08:22.643Z,12.63
2022-09-09T04:09:18.992Z,12.61
2022-09-09T04:10:14.191Z,12.65
2022-09-09T04:11:09.336Z,12.66
2022-09-09T04:12:08.752Z,12.67
2022-09-09T04:13:03.855Z,12.69
2022-09-09T04:13:59.068Z,12.71
2022-09-09T04:14:54.340Z,12.72
2022-09-09T04:15:49.275Z,12.73
2022-09-09T04:16:44.436Z,12.71
2022-09-09T04:17:39.405Z,12.71
2022-09-09T04:18:34.538Z,12.71
2022-09-09T04:19:29.535Z,12.71
2022-09-09T04:20:24.765Z,12.71
2022-09-09T04:21:19.803Z,12.69
2022-09-09T04:22:14.826Z,12.68
2022-09-09T04:23:09.816Z,12.63
2022-09-09T04:24:04.829Z,12.58
2022-09-09T04:24:59.958Z,12.52
2022-09-09T04:25:54.963Z,12.45
2022-09-09T04:26:50.007Z,12.33
2022-09-09T04:27:44.986Z,12.27
2022-09-09T04:28:40.020Z,12.29
2022-09-09T04:29:35.020Z,12.33
2022-09-09T04:30:30.040Z,12.40
2022-09-09T04:31:25.234Z,12.40
2022-09-09T04:32:20.091Z,12.38
2022-09-09T04:33:15.090Z,12.36
2022-09-09T04:34:10.198Z,12.33
2022-09-09T04:35:05.269Z,12.32
2022-09-09T04:36:00.359Z,12.31
2022-09-09T04:36:55.428Z,12.26
2022-09-09T04:37:51.853Z,12.20
2022-09-09T04:38:46.943Z,12.19
2022-09-09T04:39:42.022Z,12.24
2022-09-09T04:40:37.099Z,12.29
2022-09-09T04:41:32.246Z,12.27
2022-09-09T04:42:27.285Z,12.33
2022-09-09T04:43:22.266Z,12.45
2022-09-09T04:44:17.335Z,12.55
2022-09-09T04:45:12.436Z,12.58
2022-09-09T04:46:07.599Z,12.64
2022-09-09T04:47:02.573Z,12.67
2022-09-09T04:47:57.674Z,12.67
2022-09-09T04:48:52.744Z,12.66
2022-09-09T04:49:47.745Z,12.65
2022-09-09T04:50:42.804Z,12.67
2022-09-09T04:51:37.881Z,12.66
2022-09-09T04:52:32.949Z,12.64
2022-09-09T04:53:28.174Z,12.68
2022-09-09T04:54:24.905Z,12.73
2022-09-09T04:55:20.056Z,12.81
2022-09-09T04:56:15.223Z,12.90
2022-09-09T04:57:10.373Z,12.97
2022-09-09T04:58:05.669Z,12.98
2022-09-09T04:59:00.953Z,12.99
2022-09-09T04:59:56.154Z,12.97
2022-09-09T05:00:51.355Z,12.95
2022-09-09T05:01:46.815Z,12.93
2022-09-09T05:02:41.807Z,12.90
2022-09-09T05:03:37.001Z,12.86
2022-09-09T05:04:32.226Z,12.92
2022-09-09T05:05:27.439Z,12.99
2022-09-09T05:06:22.687Z,13.01
2022-09-09T05:07:17.682Z,12.98
2022-09-09T05:08:12.792Z,12.96
2022-09-09T05:09:07.857Z,12.92
2022-09-09T05:10:05.985Z,12.91
2022-09-09T05:11:01.213Z,12.85
2022-09-09T05:11:56.568Z,12.78
2022-09-09T05:12:51.865Z,12.74
2022-09-09T05:13:47.165Z,12.68
2022-09-09T05:14:42.473Z,12.57
2022-09-09T05:15:37.854Z,12.53
2022-09-09T05:16:33.221Z,12.49
2022-09-09T05:17:28.634Z,12.49
2022-09-09T05:18:23.863Z,12.53
2022-09-09T05:19:19.189Z,12.52
2022-09-09T05:20:17.365Z,12.54
2022-09-09T05:21:09.921Z,12.56
2022-09-09T05:22:05.921Z,12.65
2022-09-09T05:23:01.327Z,12.75
2022-09-09T05:23:56.642Z,12.81
2022-09-09T05:24:52.086Z,12.90
2022-09-09T05:25:47.308Z,12.97
2022-09-09T05:26:42.340Z,12.99
2022-09-09T05:27:37.370Z,12.98
2022-09-09T05:28:32.460Z,13.02
2022-09-09T05:29:27.372Z,13.01
2022-09-09T05:30:22.455Z,12.97
2022-09-09T05:31:17.633Z,12.99
2022-09-09T05:32:15.358Z,12.98
2022-09-09T05:33:09.414Z,12.96
2022-09-09T05:34:04.465Z,12.94
2022-09-09T05:34:59.829Z,12.93
2022-09-09T05:35:54.801Z,12.92
2022-09-09T05:36:49.862Z,12.89
2022-09-09T05:37:44.912Z,12.89
2022-09-09T05:38:40.065Z,12.87
2022-09-09T05:39:35.069Z,12.85
2022-09-09T05:40:30.133Z,12.84
2022-09-09T05:41:25.150Z,12.86
2022-09-09T05:42:20.287Z,12.87
2022-09-09T05:43:15.339Z,12.87
2022-09-09T05:44:10.394Z,12.84
2022-09-09T05:45:05.437Z,12.84
2022-09-09T05:46:00.472Z,12.87
2022-09-09T05:46:55.622Z,12.89
2022-09-09T05:47:50.543Z,12.91
2022-09-09T05:48:45.622Z,12.94
2022-09-09T05:49:40.709Z,12.90
2022-09-09T05:50:35.804Z,12.88
2022-09-09T05:51:31.046Z,12.84
2022-09-09T05:52:26.483Z,12.82
2022-09-09T05:53:21.851Z,12.84
2022-09-09T05:54:17.456Z,12.92
2022-09-09T05:55:13.048Z,12.98
2022-09-09T05:56:08.168Z,13.06
2022-09-09T05:57:03.201Z,13.13
2022-09-09T05:57:58.232Z,13.22
2022-09-09T05:58:53.306Z,13.28
2022-09-09T05:59:48.329Z,13.32
2022-09-09T06:00:43.343Z,13.40
2022-09-09T06:01:38.487Z,13.45
2022-09-09T06:02:35.904Z,13.48
2022-09-09T06:03:30.808Z,13.51
2022-09-09T06:04:25.870Z,13.55
2022-09-09T06:05:20.817Z,13.58
2022-09-09T06:06:15.903Z,13.60
2022-09-09T06:07:11.001Z,13.63
2022-09-09T06:08:06.096Z,13.65
2022-09-09T06:09:01.233Z,13.69
2022-09-09T06:09:56.317Z,13.72
2022-09-09T06:10:51.404Z,13.77
2022-09-09T06:11:46.485Z,13.80
2022-09-09T06:12:41.590Z,13.83
2022-09-09T06:13:36.708Z,13.88
2022-09-09T06:14:31.835Z,13.90
2022-09-09T06:15:27.219Z,13.89
2022-09-09T06:16:22.633Z,13.85
2022-09-09T06:17:17.962Z,13.82
2022-09-09T06:18:13.333Z,13.82
2022-09-09T06:19:08.718Z,13.86
2022-09-09T06:20:04.113Z,13.90
2022-09-09T06:20:59.589Z,13.94
2022-09-09T06:21:54.856Z,13.99
2022-09-09T06:22:50.203Z,14.01
2022-09-09T06:23:45.580Z,14.04
2022-09-09T06:24:40.957Z,14.08
2022-09-09T06:25:36.303Z,14.11
2022-09-09T06:26:31.696Z,14.14
2022-09-09T06:27:27.058Z,14.17
2022-09-09T06:28:22.441Z,14.21
2022-09-09T06:29:17.443Z,14.24
2022-09-09T06:30:12.511Z,14.28
2022-09-09T06:31:07.645Z,14.35
2022-09-09T06:32:02.692Z,14.39
2022-09-09T06:32:57.675Z,14.39
2022-09-09T06:33:52.787Z,14.41
2022-09-09T06:34:47.898Z,14.42
2022-09-09T06:35:43.007Z,14.44
2022-09-09T06:36:38.002Z,14.43
2022-09-09T06:37:33.077Z,14.47
2022-09-09T06:38:28.334Z,14.48
2022-09-09T06:39:23.477Z,14.49
2022-09-09T06:40:18.481Z,14.53
2022-09-09T06:41:13.590Z,14.59
2022-09-09T06:42:09.088Z,14.60
2022-09-09T06:43:04.435Z,14.60
2022-09-09T06:43:59.825Z,14.58
2022-09-09T06:44:55.245Z,14.57
2022-09-09T06:45:50.875Z,14.55
2022-09-09T06:46:46.151Z,14.54
2022-09-09T06:47:41.489Z,14.54
2022-09-09T06:48:36.949Z,14.57
2022-09-09T06:49:32.318Z,14.58
2022-09-09T06:50:27.691Z,14.60
2022-09-09T06:51:23.066Z,14.54
2022-09-09T06:52:18.452Z,14.56
2022-09-09T06:53:15.685Z,14.62
2022-09-09T06:54:10.945Z,14.61
2022-09-09T06:55:06.331Z,14.69
2022-09-09T06:56:01.824Z,14.84
2022-09-09T06:56:57.227Z,14.95
2022-09-09T06:57:52.684Z,15.14
2022-09-09T06:58:47.669Z,15.32
2022-09-09T06:59:42.740Z,15.48
2022-09-09T07:00:37.814Z,15.56
2022-09-09T07:01:32.929Z,15.56
2022-09-09T07:02:27.863Z,15.74
2022-09-09T07:03:23.008Z,15.97
2022-09-09T07:04:18.043Z,15.95
2022-09-09T07:05:14.300Z,16.01
2022-09-09T07:06:09.368Z,16.11
2022-09-09T07:07:04.380Z,16.08
2022-09-09T07:07:59.468Z,16.19
2022-09-09T07:08:56.768Z,16.33
2022-09-09T07:09:49.473Z,16.35
2022-09-09T07:10:44.500Z,16.24
2022-09-09T07:11:39.526Z,16.26
2022-09-09T07:12:34.611Z,16.38
2022-09-09T07:13:29.687Z,16.59
2022-09-09T07:14:24.805Z,16.71
2022-09-09T07:15:19.774Z,16.88
2022-09-09T07:16:14.888Z,17.03
2022-09-09T07:17:09.944Z,17.19
2022-09-09T07:18:05.006Z,17.25
2022-09-09T07:19:00.343Z,17.21
2022-09-09T07:19:55.994Z,17.32
2022-09-09T07:20:54.582Z,17.41
2022-09-09T07:21:49.908Z,17.52
2022-09-09T07:22:45.511Z,17.64
2022-09-09T07:23:40.877Z,17.59
2022-09-09T07:24:36.381Z,17.45
2022-09-09T07:25:31.972Z,17.50
2022-09-09T07:26:27.051Z,17.54
2022-09-09T07:27:22.156Z,17.10
2022-09-09T07:28:17.186Z,16.75
2022-09-09T07:29:12.226Z,16.61
2022-09-09T07:30:07.240Z,16.56
2022-09-09T07:31:02.327Z,16.40
2022-09-09T07:31:57.356Z,16.17
2022-09-09T07:32:52.460Z,16.18
2022-09-09T07:33:47.576Z,16.22
2022-09-09T07:34:42.741Z,16.29
2022-09-09T07:35:37.688Z,16.60
2022-09-09T07:36:33.729Z,16.70
2022-09-09T07:37:28.209Z,16.96
2022-09-09T07:38:23.738Z,17.03
2022-09-09T07:39:19.246Z,16.97
2022-09-09T07:40:14.665Z,17.07
2022-09-09T07:41:09.716Z,17.05
2022-09-09T07:42:04.795Z,17.07
2022-09-09T07:42:59.877Z,17.13
2022-09-09T07:43:56.594Z,17.05
2022-09-09T07:44:51.614Z,16.89
2022-09-09T07:45:46.642Z,16.97
2022-09-09T07:46:41.696Z,17.07
2022-09-09T07:47:36.690Z,17.21
2022-09-09T07:48:31.747Z,17.30
2022-09-09T07:49:32.171Z,17.20
2022-09-09T07:50:22.924Z,17.18
2022-09-09T07:51:16.942Z,17.30
2022-09-09T07:52:13.219Z,17.33
2022-09-09T07:53:07.178Z,17.26
2022-09-09T07:54:02.301Z,17.31
2022-09-09T07:54:57.384Z,17.36
2022-09-09T07:55:52.475Z,17.58
2022-09-09T07:56:47.555Z,17.57
2022-09-09T07:57:42.614Z,17.65
2022-09-09T07:58:38.655Z,17.73
2022-09-09T07:59:33.229Z,17.90
2022-09-09T08:00:28.203Z,17.87
2022-09-09T08:01:23.298Z,17.73
2022-09-09T08:02:18.359Z,17.73
2022-09-09T08:03:13.529Z,17.77
2022-09-09T08:04:08.485Z,17.70
2022-09-09T08:05:03.511Z,17.72
2022-09-09T08:05:58.517Z,17.74
2022-09-09T08:06:53.632Z,17.75
2022-09-09T08:07:48.961Z,17.93
2022-09-09T08:08:44.068Z,17.93
2022-09-09T08:09:39.166Z,18.01
2022-09-09T08:10:34.229Z,18.21
2022-09-09T08:11:29.204Z,18.32
2022-09-09T08:12:24.349Z,18.52
2022-09-09T08:13:19.897Z,18.74
2022-09-09T08:14:15.361Z,19.00
2022-09-09T08:15:10.626Z,19.28
2022-09-09T08:16:06.245Z,19.54
2022-09-09T08:17:01.218Z,19.51
2022-09-09T08:17:56.280Z,19.11
2022-09-09T08:18:51.389Z,18.83
2022-09-09T08:19:46.464Z,18.54
2022-09-09T08:20:41.593Z,18.51
2022-09-09T08:21:36.725Z,18.50
2022-09-09T08:22:31.706Z,18.79
2022-09-09T08:23:26.812Z,18.90
2022-09-09T08:24:21.916Z,19.05
2022-09-09T08:25:16.934Z,19.20
2022-09-09T08:26:11.942Z,19.10
2022-09-09T08:27:07.014Z,19.15
2022-09-09T08:28:02.092Z,19.31
2022-09-09T08:28:57.292Z,19.57
2022-09-09T08:29:54.173Z,19.67
2022-09-09T08:30:49.731Z,19.67
2022-09-09T08:31:44.940Z,19.78
2022-09-09T08:32:43.365Z,19.74
2022-09-09T08:33:36.902Z,19.73
2022-09-09T08:34:31.380Z,19.69
2022-09-09T08:35:26.884Z,19.48
2022-09-09T08:36:22.136Z,19.46
2022-09-09T08:37:17.669Z,19.56
2022-09-09T08:38:13.170Z,19.48
2022-09-09T08:39:08.555Z,19.42
2022-09-09T08:40:03.999Z,19.34
2022-09-09T08:40:59.629Z,19.33
2022-09-09T08:41:55.009Z,19.55
2022-09-09T08:42:50.669Z,19.47
2022-09-09T08:43:45.749Z,19.47
2022-09-09T08:44:41.994Z,19.78
2022-09-09T08:45:36.009Z,20.10
2022-09-09T08:46:31.079Z,20.36
2022-09-09T08:47:28.476Z,20.56
2022-09-09T08:48:21.190Z,20.59
2022-09-09T08:49:16.292Z,20.43
2022-09-09T08:50:11.443Z,20.35
2022-09-09T08:51:06.426Z,20.41
2022-09-09T08:52:01.638Z,20.20
2022-09-09T08:52:57.806Z,19.95
2022-09-09T08:53:56.524Z,19.74
2022-09-09T08:54:52.416Z,19.80
2022-09-09T08:55:44.474Z,19.92
2022-09-09T08:56:39.867Z,20.08
2022-09-09T08:57:34.956Z,20.24
2022-09-09T08:58:29.974Z,20.45
2022-09-09T08:59:25.054Z,20.41
2022-09-09T09:00:20.061Z,20.42
2022-09-09T09:01:15.229Z,20.60
2022-09-09T09:02:13.460Z,20.74
2022-09-09T09:03:06.214Z,20.94
2022-09-09T09:04:00.199Z,20.93
2022-09-09T09:04:55.343Z,21.14
2022-09-09T09:05:50.500Z,21.40
2022-09-09T09:06:45.540Z,21.68
2022-09-09T09:07:40.615Z,21.93
2022-09-09T09:08:35.747Z,21.93
2022-09-09T09:09:30.836Z,21.67
2022-09-09T09:10:40.955Z,21.47
2022-09-09T09:11:22.839Z,21.52
2022-09-09T09:12:17.223Z,21.69
2022-09-09T09:13:13.155Z,21.88
2022-09-09T09:14:08.561Z,22.07
2022-09-09T09:15:04.273Z,22.44
2022-09-09T09:16:00.246Z,22.65
2022-09-09T09:16:55.633Z,22.91
2022-09-09T09:17:51.409Z,23.10
2022-09-09T09:18:46.666Z,23.18
2022-09-09T09:19:42.141Z,23.00
2022-09-09T09:20:38.081Z,22.80
2022-09-09T09:21:33.765Z,22.75
2022-09-09T09:22:29.014Z,22.32
2022-09-09T09:23:25.365Z,22.01
2022-09-09T09:24:22.026Z,21.78
2022-09-09T09:25:16.683Z,21.24
2022-09-09T09:26:12.231Z,21.19
2022-09-09T09:27:07.851Z,21.18
2022-09-09T09:28:03.786Z,21.19
2022-09-09T09:28:59.318Z,21.37
2022-09-09T09:30:21.121Z,21.51
2022-09-09T09:30:51.549Z,21.68
2022-09-09T09:31:46.399Z,21.88
2022-09-09T09:32:41.772Z,21.84
2022-09-09T09:33:37.542Z,21.65
2022-09-09T09:34:33.048Z,21.79
2022-09-09T09:35:28.698Z,21.94
2022-09-09T09:36:24.335Z,21.81
2022-09-09T09:37:19.877Z,22.06
2022-09-09T09:40:08.165Z,22.31
2022-09-09T09:41:03.129Z,22.57
2022-09-09T09:41:58.635Z,22.52
2022-09-09T09:42:54.172Z,22.37
2022-09-09T09:43:50.063Z,21.92
2022-09-09T09:44:45.552Z,21.72
2022-09-09T09:45:43.953Z,21.47
2022-09-09T09:46:37.845Z,21.58
2022-09-09T09:47:32.517Z,21.85
2022-09-09T09:48:27.997Z,21.85
2022-09-09T09:49:24.068Z,21.81
2022-09-09T09:50:19.197Z,21.91
2022-09-09T09:51:14.829Z,22.08
2022-09-09T09:52:10.513Z,22.44
2022-09-09T09:53:05.887Z,22.65
2022-09-09T09:54:01.288Z,22.91
2022-09-09T09:54:57.792Z,22.87
2022-09-09T09:55:53.162Z,22.81
2022-09-09T09:56:49.074Z,23.09
2022-09-09T09:57:44.475Z,23.39
2022-09-09T09:58:40.024Z,23.40
2022-09-09T09:59:39.672Z,23.35
2022-09-09T10:00:31.049Z,23.34
2022-09-09T10:01:26.960Z,23.41
2022-09-09T10:02:22.429Z,23.55
2022-09-09T10:03:18.046Z,23.71
2022-09-09T10:04:13.966Z,23.82
2022-09-09T10:05:09.518Z,23.69
2022-09-09T10:06:05.055Z,23.44
2022-09-09T10:07:01.499Z,23.30
2022-09-09T10:07:56.934Z,23.01
2022-09-09T10:08:52.885Z,22.87
2022-09-09T10:09:48.517Z,22.70
2022-09-09T10:10:47.930Z,22.64
2022-09-09T10:11:39.462Z,22.95
2022-09-09T10:12:34.952Z,23.20
2022-09-09T10:13:31.635Z,23.51
2022-09-09T10:14:26.655Z,23.70
2022-09-09T10:15:22.432Z,23.70
2022-09-09T10:16:17.992Z,23.87
2022-09-09T10:17:13.464Z,23.50
2022-09-09T10:18:09.650Z,23.26
2022-09-09T10:19:05.162Z,23.09
2022-09-09T10:20:00.931Z,22.83
2022-09-09T10:20:56.443Z,22.72
2022-09-09T10:21:51.944Z,22.78
2022-09-09T10:22:47.910Z,22.84
2022-09-09T10:23:43.760Z,23.17
2022-09-09T10:24:39.113Z,23.59
2022-09-09T10:25:35.731Z,23.91
2022-09-09T10:26:31.480Z,23.79
2022-09-09T10:27:27.251Z,23.83
2022-09-09T10:28:22.651Z,23.89
2022-09-09T10:29:17.921Z,24.21
2022-09-09T10:30:13.535Z,24.43
2022-09-09T10:31:09.093Z,24.67
2022-09-09T10:32:04.683Z,25.03
2022-09-09T10:33:00.655Z,24.81
2022-09-09T10:33:55.893Z,24.59
2022-09-09T10:34:51.380Z,24.28
2022-09-09T10:35:46.897Z,23.66
2022-09-09T10:36:41.961Z,23.36
2022-09-09T10:37:36.990Z,23.03
2022-09-09T10:38:32.057Z,22.96
2022-09-09T10:39:27.161Z,22.48
2022-09-09T10:40:22.188Z,22.27
2022-09-09T10:41:17.158Z,22.19
2022-09-09T10:42:12.233Z,22.24
2022-09-09T10:43:07.276Z,22.39
2022-09-09T10:44:02.358Z,22.72
2022-09-09T10:44:57.465Z,22.74
2022-09-09T10:45:52.583Z,22.72
2022-09-09T10:46:47.886Z,22.86
2022-09-09T10:47:43.414Z,22.82
2022-09-09T10:48:39.638Z,22.84
2022-09-09T10:49:34.997Z,22.87
2022-09-09T10:50:57.218Z,22.86
2022-09-09T10:51:27.436Z,22.58
2022-09-09T10:52:22.006Z,22.84
2022-09-09T10:53:18.566Z,23.12
2022-09-09T10:54:14.037Z,23.35
2022-09-09T10:55:09.828Z,23.43
2022-09-09T10:56:05.350Z,23.64
2022-09-09T10:57:00.827Z,23.68
2022-09-09T10:57:56.862Z,23.80
2022-09-09T10:58:52.384Z,23.96
2022-09-09T10:59:47.986Z,24.19
2022-09-09T11:00:44.177Z,24.55
2022-09-09T11:01:39.722Z,24.80
2022-09-09T11:02:35.479Z,24.77
2022-09-09T11:03:30.974Z,24.76
2022-09-09T11:04:26.627Z,24.86
2022-09-09T11:05:22.050Z,24.53
2022-09-09T11:06:17.621Z,24.46
2022-09-09T11:07:13.548Z,24.23
2022-09-09T11:08:08.966Z,24.07
2022-09-09T11:09:04.364Z,24.28
2022-09-09T11:10:00.164Z,24.04
2022-09-09T11:10:55.425Z,23.72
2022-09-09T11:11:51.067Z,23.29
2022-09-09T11:12:47.235Z,22.91
2022-09-09T11:13:42.732Z,23.15
2022-09-09T11:14:39.203Z,23.13
2022-09-09T11:15:34.084Z,23.20
2022-09-09T11:16:29.715Z,23.34
2022-09-09T11:17:25.385Z,23.39
2022-09-09T11:18:20.997Z,23.53
2022-09-09T11:19:16.890Z,23.92
2022-09-09T11:20:12.041Z,24.45
2022-09-09T11:21:07.540Z,24.75
2022-09-09T11:22:03.354Z,24.91
2022-09-09T11:22:58.813Z,24.75
2022-09-09T11:23:54.434Z,24.49
2022-09-09T11:24:50.586Z,24.68
2022-09-09T11:25:46.278Z,24.69
2022-09-09T11:26:41.902Z,24.56
2022-09-09T11:27:37.386Z,24.30
2022-09-09T11:28:32.963Z,23.96
2022-09-09T11:29:28.650Z,23.73
2022-09-09T11:30:51.388Z,23.54
2022-09-09T11:31:21.040Z,23.45
2022-09-09T11:32:15.311Z,23.28
2022-09-09T11:33:10.660Z,23.23
2022-09-09T11:34:07.363Z,23.29
2022-09-09T11:35:02.817Z,23.28
2022-09-09T11:35:58.280Z,23.20
2022-09-09T11:36:54.656Z,23.69
2022-09-09T11:37:50.275Z,24.25
2022-09-09T11:38:46.062Z,24.70
2022-09-09T11:39:41.648Z,25.20
2022-09-09T11:40:37.201Z,25.30
2022-09-09T11:41:32.780Z,25.42
2022-09-09T11:42:28.319Z,25.51
2022-09-09T11:43:23.858Z,25.33
2022-09-09T11:44:19.450Z,25.15
2022-09-09T11:45:15.288Z,24.94
2022-09-09T11:46:10.719Z,24.67
2022-09-09T11:47:06.056Z,24.48
2022-09-09T11:48:01.925Z,24.16
2022-09-09T11:48:57.392Z,23.98
2022-09-09T11:49:53.156Z,23.73
2022-09-09T11:50:48.629Z,23.57
2022-09-09T11:51:44.057Z,23.45
2022-09-09T11:52:40.004Z,23.15
2022-09-09T11:53:35.578Z,22.91
2022-09-09T11:54:31.037Z,22.88
2022-09-09T11:55:27.389Z,23.16